Surface/Precipitation History
02/08/2018 18:07  to  2/9/2018 18:07
Change End Date:
Date/Time
(MST)
Sf
Temp Chem Water Layer Surface Precipitation
Sfc Pvt Sub Frz Factor Pct Dpth DpthThk IcePct Cond Salin FI Type Intens Accum Rate
02/09/2018 18:05 Ice Warning 10.8F - - 31F 40 2% - - 97% 1 mhos 725 - None None - -
02/09/2018 17:56 Ice Warning 10.4F - - 31F 45 2% - - 97% 1 mhos 728 - None None - -
02/09/2018 17:55 Ice Warning 10.4F - - 31F 65 2% - - 97% 1 mhos 733 - None None - -
02/09/2018 17:45 Ice Warning 10.2F - - 31F 55 2% - - 97% 1 mhos 730 - None None - -
02/09/2018 17:41 Ice Warning 10.2F - - 31F 90 2% - - 97% 1 mhos 732 - None None - -
02/09/2018 17:34 Ice Warning 10.4F - - 31F 60 2% - - 97% 1 mhos 736 - None None - -
02/09/2018 17:26 Ice Warning 10.8F - - 31F 60 2% - - 97% 1 mhos 721 - None None - -
02/09/2018 17:24 Ice Warning 10.8F - - 31F 55 2% - - 97% 1 mhos 734 - None None - -
02/09/2018 17:14 Ice Warning 11.3F - - 31F 25 2% - - 97% 1 mhos 727 - None None - -
02/09/2018 17:11 Ice Warning 11.3F - - 31F 30 2% - - 97% 1 mhos 723 - None None - -
02/09/2018 17:04 Ice Warning 11.5F - - 31F 50 2% - - 97% 1 mhos 728 - None None - -
02/09/2018 16:56 Ice Warning 11.7F - - 31F 20 2% - - 97% 1 mhos 723 - None None - -
02/09/2018 16:54 Ice Warning 11.8F - - 31F 65 2% - - 97% 1 mhos 719 - None None - -
02/09/2018 16:44 Ice Warning 12.6F - - 31F 30 2% - - 97% 1 mhos 710 - None None - -
02/09/2018 16:41 Ice Warning 12.9F - - 31F 15 2% - - 97% 1 mhos 707 - None None - -
Date/Time
(MST)
Sf
Temp Chem Water Layer Surface Precipitation
Sfc Pvt Sub Frz Factor Pct Dpth DpthThk IcePct Cond Salin FI Type Intens Accum Rate
02/09/2018 16:34 Ice Warning 12.9F - - 31F 20 2% - - 97% 1 mhos 717 - None None - -
02/09/2018 16:26 Ice Warning 13.3F - - 31F 20 2% - - 97% 2 mhos 714 - None None - -
02/09/2018 16:24 Ice Warning 13.3F - - 31F 25 2% - - 97% 2 mhos 718 - None None - -
02/09/2018 16:14 Ice Warning 13.3F - - 31F 25 2% - - 97% 2 mhos 702 - None None - -
02/09/2018 16:11 Ice Warning 13.3F - - 31F 25 2% - - 97% 2 mhos 709 - None None - -
02/09/2018 16:04 Ice Warning 13.6F - - 31F 40 2% - - 97% 2 mhos 710 - None None - -
02/09/2018 15:56 Ice Warning 13.6F - - 31F 45 2% - - 97% 2 mhos 713 - None None - -
02/09/2018 15:54 Ice Warning 13.8F - - 31F 35 2% - - 97% 2 mhos 720 - None None - -
02/09/2018 15:44 Ice Warning 14.5F - - 31F 50 2% - - 97% 2 mhos 699 - None None - -
02/09/2018 15:41 Ice Warning 14.5F - - 31F 40 2% - - 97% 2 mhos 707 - None None - -
02/09/2018 15:34 Ice Warning 14.9F - - 31F 35 2% - - 97% 2 mhos 703 - None None - -
02/09/2018 15:26 Ice Warning 14.9F - - 31F 40 2% - - 97% 2 mhos 698 - None None - -
02/09/2018 15:24 Ice Warning 14.9F - - 31F 45 2% - - 97% 2 mhos 702 - None None - -
02/09/2018 15:14 Ice Warning 15.1F - - 31F 40 2% - - 97% 2 mhos 698 - None None - -
02/09/2018 15:11 Ice Warning 15.3F - - 31F 40 2% - - 97% 2 mhos 693 - None None - -
Date/Time
(MST)
Sf
Temp Chem Water Layer Surface Precipitation
Sfc Pvt Sub Frz Factor Pct Dpth DpthThk IcePct Cond Salin FI Type Intens Accum Rate
02/09/2018 15:04 Ice Warning 15.4F - - 31F 40 2% - - 97% 2 mhos 692 - None None - -
02/09/2018 14:56 Ice Warning 14.9F - - 31F 65 2% - - 97% 2 mhos 702 - None None - -
02/09/2018 14:54 Ice Warning 14.7F - - 31F 45 2% - - 97% 2 mhos 703 - None None - -
02/09/2018 14:44 Ice Warning 15.6F - - 31F 30 2% - - 97% 2 mhos 692 - None None - -
02/09/2018 14:41 Ice Warning 15.6F - - 31F 30 2% - - 97% 2 mhos 692 - None None - -
02/09/2018 14:34 Ice Warning 15.4F - - 31F 40 2% - - 97% 2 mhos 692 - None None - -
02/09/2018 14:26 Ice Warning 15.3F - - 31F 25 2% - - 97% 2 mhos 706 - None None - -
02/09/2018 14:23 Ice Warning 15.1F - - 31F 30 2% - - 97% 2 mhos 702 - None None - -
02/09/2018 14:13 Ice Warning 15.3F - - 31F 35 2% - - 97% 2 mhos 701 - None None - -
02/09/2018 14:11 Ice Warning 15.3F - - 31F 35 2% - - 97% 2 mhos 706 - None None - -
02/09/2018 14:03 Ice Warning 15.4F - - 31F 40 2% - - 97% 2 mhos 701 - None None - -
02/09/2018 13:56 Ice Warning 15.3F - - 31F 45 2% - - 97% 2 mhos 714 - None None - -
02/09/2018 13:53 Ice Warning 15.4F - - 31F 65 2% - - 97% 2 mhos 705 - None None - -
02/09/2018 13:43 Ice Warning 15.8F - - 31F 45 2% - - 97% 2 mhos 710 - None None - -
02/09/2018 13:41 Ice Warning 15.8F - - 31F 40 2% - - 97% 2 mhos 710 - None None - -
Date/Time
(MST)
Sf
Temp Chem Water Layer Surface Precipitation
Sfc Pvt Sub Frz Factor Pct Dpth DpthThk IcePct Cond Salin FI Type Intens Accum Rate
02/09/2018 13:33 Ice Warning 16.2F - - 31F 60 2% - - 97% 2 mhos 710 - None None - -
02/09/2018 13:26 Ice Warning 16.3F - - 31F 65 2% - - 97% 2 mhos 715 - None None - -
02/09/2018 13:23 Ice Warning 16.2F - - 31F 45 2% - - 97% 2 mhos 705 - None None - -
02/09/2018 13:13 Ice Warning 15.6F - - 31F 50 2% - - 97% 2 mhos 701 - None None - -
02/09/2018 13:11 Ice Warning 15.6F - - 31F 55 2% - - 97% 2 mhos 710 - None None - -
02/09/2018 13:03 Ice Warning 14.7F - - 31F 40 2% - - 97% 2 mhos 707 - None None - -
02/09/2018 12:56 Ice Warning 14.0F - - 31F 40 2% - - 97% 2 mhos 719 - None None - -
02/09/2018 12:53 Ice Warning 13.6F - - 31F 50 2% - - 97% 2 mhos 729 - None None - -
02/09/2018 12:43 Ice Warning 13.1F - - 31F 65 2% - - 97% 2 mhos 742 - None None - -
02/09/2018 12:41 Ice Warning 12.9F - - 31F 35 2% - - 97% 2 mhos 739 - None None - -
02/09/2018 12:33 Ice Warning 13.3F - - 31F 40 2% - - 97% 2 mhos 741 - None None - -
02/09/2018 12:26 Ice Warning 13.1F - - 31F 60 2% - - 97% 2 mhos 741 - None None - -
02/09/2018 12:23 Ice Warning 13.3F - - 31F 35 2% - - 97% 2 mhos 729 - None None - -
02/09/2018 12:13 Ice Warning 12.7F - - 31F 55 2% - - 97% 2 mhos 744 - None None - -
02/09/2018 12:11 Ice Warning 12.6F - - 31F 55 2% - - 97% 2 mhos 746 - None None - -
Date/Time
(MST)
Sf
Temp Chem Water Layer Surface Precipitation
Sfc Pvt Sub Frz Factor Pct Dpth DpthThk IcePct Cond Salin FI Type Intens Accum Rate
02/09/2018 12:03 Ice Warning 12.6F - - 31F 60 2% - - 97% 1 mhos 742 - None None - -
02/09/2018 11:56 Ice Warning 12.4F - - 31F 50 2% - - 97% 1 mhos 742 - None None - -
02/09/2018 11:53 Ice Warning 12.2F - - 31F 35 2% - - 97% 1 mhos 741 - None None - -
02/09/2018 11:43 Ice Warning 11.7F - - 31F 40 3% - - 97% 1 mhos 761 - None None - -
02/09/2018 11:41 Ice Warning 11.7F - - 31F 35 3% - - 97% 1 mhos 754 - None None - -
02/09/2018 11:33 Ice Warning 11.3F - - 31F 35 3% - - 97% 1 mhos 762 - None None - -
02/09/2018 11:26 Ice Warning 11.8F - - 31F 60 3% - - 97% 1 mhos 751 - None None - -
02/09/2018 11:23 Ice Warning 11.7F - - 31F 60 2% - - 97% 1 mhos 746 - None None - -
02/09/2018 11:12 Ice Warning 10.9F - - 31F 45 3% - - 97% 1 mhos 751 - None None - -
02/09/2018 11:11 Ice Warning 10.6F - - 31F 55 3% - - 97% 1 mhos 756 - None None - -
02/09/2018 11:02 Ice Warning 9.9F - - 31F 45 3% - - 97% 1 mhos 771 - None None - -
02/09/2018 10:56 Ice Warning 9.1F - - 31F 55 3% - - 97% 1 mhos 786 - None None - -
02/09/2018 10:52 Ice Warning 9.1F - - 31F 40 3% - - 97% 1 mhos 787 - None None - -
02/09/2018 10:42 Ice Warning 9.1F - - 31F 60 3% - - 97% 1 mhos 780 - None None - -
02/09/2018 10:41 Ice Warning 9.1F - - 31F 40 3% - - 97% 1 mhos 781 - None None - -
Date/Time
(MST)
Sf
Temp Chem Water Layer Surface Precipitation
Sfc Pvt Sub Frz Factor Pct Dpth DpthThk IcePct Cond Salin FI Type Intens Accum Rate
02/09/2018 10:32 Ice Warning 8.4F - - 31F 35 3% - - 97% 1 mhos 795 - None None - -
02/09/2018 10:26 Ice Warning 8.8F - - 31F 60 3% - - 97% 1 mhos 793 - None None - -
02/09/2018 10:22 Ice Warning 9.0F - - 31F 35 3% - - 97% 1 mhos 787 - None None - -
02/09/2018 10:12 Ice Warning 8.8F - - 31F 60 3% - - 97% 1 mhos 787 - None None - -
02/09/2018 10:11 Ice Warning 8.6F - - 31F 45 3% - - 97% 1 mhos 788 - None None - -
02/09/2018 10:02 Ice Warning 8.6F - - 31F 35 3% - - 97% 1 mhos 788 - None None - -
02/09/2018 09:56 Ice Warning 8.4F - - 31F 40 3% - - 97% 1 mhos 789 - None None - -
02/09/2018 09:52 Ice Warning 8.4F - - 31F 45 3% - - 97% 1 mhos 789 - None None - -
02/09/2018 09:42 Ice Warning 7.5F - - 31F 50 3% - - 97% 1 mhos 803 - None None - -
02/09/2018 09:41 Ice Warning 7.5F - - 31F 50 3% - - 97% 1 mhos 809 - None None - -
02/09/2018 09:32 Ice Warning 6.8F - - 31F 40 3% - - 97% 1 mhos 818 - None None - -
02/09/2018 09:26 Ice Warning 6.6F - - 31F 50 3% - - 97% 1 mhos 824 - None None - -
02/09/2018 09:22 Ice Warning 6.4F - - 31F 45 3% - - 97% 1 mhos 826 - None None - -
02/09/2018 09:12 Ice Warning 6.4F - - 31F 50 3% - - 97% 1 mhos 831 - None None - -
02/09/2018 09:11 Ice Warning 6.4F - - 31F 35 3% - - 97% 1 mhos 834 - None None - -
Date/Time
(MST)
Sf
Temp Chem Water Layer Surface Precipitation
Sfc Pvt Sub Frz Factor Pct Dpth DpthThk IcePct Cond Salin FI Type Intens Accum Rate
02/09/2018 09:02 Ice Warning 6.3F - - 31F 35 3% - - 97% 1 mhos 831 - None None - -
02/09/2018 08:56 Ice Warning 6.1F - - 31F 50 3% - - 97% 1 mhos 832 - None None - -
02/09/2018 08:52 Ice Warning 6.1F - - 31F 50 3% - - 97% 1 mhos 829 - None None - -
02/09/2018 08:42 Ice Warning 5.5F - - 31F 40 3% - - 97% 1 mhos 844 - None None - -
02/09/2018 08:41 Ice Warning 5.7F - - 31F 45 3% - - 97% 1 mhos 828 - None None - -
02/09/2018 08:32 Ice Warning 5.5F - - 31F 45 3% - - 97% 1 mhos 841 - None None - -
02/09/2018 08:26 Ice Warning 5.5F - - 31F 50 3% - - 97% 1 mhos 840 - None None - -
02/09/2018 08:22 Ice Warning 5.4F - - 31F 55 3% - - 97% 1 mhos 842 - None None - -
02/09/2018 08:12 Ice Warning 5.2F - - 31F 45 3% - - 97% 1 mhos 848 - None None - -
02/09/2018 08:11 Ice Warning 5.2F - - 31F 45 3% - - 97% 1 mhos 848 - None None - -
02/09/2018 08:02 Ice Warning 4.8F - - 31F 40 3% - - 97% 1 mhos 853 - None None - -
02/09/2018 07:56 Ice Warning 4.8F - - 31F 45 3% - - 97% 1 mhos 853 - None None - -
02/09/2018 07:52 Ice Warning 4.6F - - 31F 40 3% - - 97% 1 mhos 853 - None None - -
02/09/2018 07:42 Ice Warning 4.6F - - 31F 40 3% - - 97% 1 mhos 850 - None None - -
02/09/2018 07:41 Ice Warning 4.6F - - 31F 40 3% - - 97% 1 mhos 850 - None None - -
Date/Time
(MST)
Sf
Temp Chem Water Layer Surface Precipitation
Sfc Pvt Sub Frz Factor Pct Dpth DpthThk IcePct Cond Salin FI Type Intens Accum Rate
02/09/2018 07:32 Ice Warning 4.1F - - 31F 30 3% - - 97% 1 mhos 849 - None None - -
02/09/2018 07:26 Ice Warning 3.7F - - 31F 30 3% - - 97% 1 mhos 866 - None None - -
02/09/2018 07:21 Ice Warning 3.7F - - 31F 30 3% - - 97% 1 mhos 869 - None None - -
02/09/2018 07:11 Ice Warning 4.1F - - 31F 30 3% - - 97% 1 mhos 859 - None None - -
02/09/2018 07:11 Ice Warning 4.1F - - 31F 30 3% - - 97% 1 mhos 859 - None None - -
02/09/2018 07:01 Ice Warning 4.6F - - 31F 25 3% - - 97% 1 mhos 848 - None None - -
02/09/2018 06:56 Ice Warning 4.8F - - 31F 25 3% - - 97% 1 mhos 851 - None None - -
02/09/2018 06:51 Ice Warning 5.4F - - 31F 20 3% - - 97% 1 mhos 838 - None None - -
02/09/2018 06:41 Ice Warning 6.8F - - 31F 20 3% - - 97% 1 mhos 805 - None None - -
02/09/2018 06:41 Ice Warning 6.8F - - 31F 20 3% - - 97% 1 mhos 805 - None None - -
02/09/2018 06:31 Ice Warning 7.2F - - 31F 20 3% - - 97% 1 mhos 804 - None None - -
02/09/2018 06:26 Ice Warning 7.5F - - 31F 20 3% - - 97% 1 mhos 800 - None None - -
02/09/2018 06:21 Ice Warning 8.2F - - 31F 15 3% - - 97% 1 mhos 791 - None None - -
02/09/2018 06:11 Ice Warning 9.3F - - 31F 10 3% - - 97% 1 mhos 769 - None None - -
02/09/2018 06:11 Ice Warning 9.3F - - 31F 10 3% - - 97% 1 mhos 769 - None None - -
Date/Time
(MST)
Sf
Temp Chem Water Layer Surface Precipitation
Sfc Pvt Sub Frz Factor Pct Dpth DpthThk IcePct Cond Salin FI Type Intens Accum Rate
02/09/2018 06:01 Ice Warning 9.7F - - 31F 5 3% - - 97% 1 mhos 756 - None None - -
02/09/2018 05:56 Ice Warning 9.5F - - 31F 5 3% - - 97% 1 mhos 765 - None None - -
02/09/2018 05:51 Ice Warning 9.5F - - 31F 5 3% - - 97% 1 mhos 765 - None None - -
02/09/2018 05:41 Ice Warning 9.7F - - 31F 5 3% - - 97% 1 mhos 756 - None None - -
02/09/2018 05:41 Ice Warning 9.7F - - 31F 5 3% - - 97% 1 mhos 756 - None None - -
02/09/2018 05:31 Ice Warning 9.5F - - 31F 5 3% - - 97% 1 mhos 756 - None None - -
02/09/2018 05:26 Ice Warning 9.1F - - 31F 5 3% - - 97% 1 mhos 763 - None None - -
02/09/2018 05:21 Ice Warning 8.8F - - 31F 5 3% - - 97% 1 mhos 767 - None None - -
02/09/2018 05:11 Ice Warning 8.4F - - 31F 5 3% - - 97% 1 mhos 786 - None None - -
02/09/2018 05:01 Ice Warning 7.5F - - 31F 5 3% - - 97% 1 mhos 800 - None None - -
02/09/2018 04:56 Ice Warning 7.5F - - 31F 5 3% - - 97% 1 mhos 816 - None None - -
02/09/2018 04:51 Ice Warning 7.5F - - 31F 5 3% - - 97% 1 mhos 810 - None None - -
02/09/2018 04:41 Ice Warning 7.2F - - 31F 5 3% - - 97% 1 mhos 828 - None None - -
02/09/2018 04:41 Ice Warning 7.2F - - 31F 5 3% - - 97% 1 mhos 828 - None None - -
02/09/2018 04:31 Ice Warning 7.3F - - 31F 5 3% - - 97% 1 mhos 820 - None None - -
Date/Time
(MST)
Sf
Temp Chem Water Layer Surface Precipitation
Sfc Pvt Sub Frz Factor Pct Dpth DpthThk IcePct Cond Salin FI Type Intens Accum Rate
02/09/2018 04:26 Ice Warning 7.5F - - 31F 5 3% - - 97% 1 mhos 819 - None None - -
02/09/2018 04:21 Ice Warning 7.7F - - 31F 5 3% - - 97% 1 mhos 814 - None None - -
02/09/2018 04:11 Ice Warning 8.2F - - 31F 5 3% - - 97% 1 mhos 798 - None None - -
02/09/2018 04:11 Ice Warning 8.2F - - 31F 5 3% - - 97% 1 mhos 798 - None None - -
02/09/2018 04:00 Ice Warning 8.4F - - 31F 5 3% - - 97% 1 mhos 800 - None None - -
02/09/2018 03:56 Ice Warning 8.6F - - 31F 5 3% - - 97% 1 mhos 802 - None None - -
02/09/2018 03:50 Ice Warning 9.3F - - 31F 5 3% - - 97% 1 mhos 785 - None None - -
02/09/2018 03:41 Ice Warning 9.5F - - 31F 5 3% - - 97% 1 mhos 788 - None None - -
02/09/2018 03:40 Ice Warning 9.5F - - 31F 5 3% - - 97% 1 mhos 788 - None None - -
02/09/2018 03:30 Ice Warning 10.4F - - 31F 5 3% - - 97% 1 mhos 772 - None None - -
02/09/2018 03:26 Ice Warning 11.3F - - 31F 5 2% - - 97% 1 mhos 742 - None None - -
02/09/2018 03:20 Ice Warning 11.3F - - 31F 5 2% - - 97% 1 mhos 742 - None None - -
02/09/2018 03:11 Ice Warning 11.5F - - 31F 5 2% - - 97% 1 mhos 737 - None None - -
02/09/2018 03:10 Ice Warning 11.5F - - 31F 5 2% - - 97% 1 mhos 737 - None None - -
02/09/2018 03:00 Ice Warning 11.7F - - 31F 5 2% - - 97% 1 mhos 748 - None None - -
Date/Time
(MST)
Sf
Temp Chem Water Layer Surface Precipitation
Sfc Pvt Sub Frz Factor Pct Dpth DpthThk IcePct Cond Salin FI Type Intens Accum Rate
02/09/2018 02:56 Ice Warning 12.4F - - 31F 5 2% - - 97% 1 mhos 718 - None None - -
02/09/2018 02:50 Ice Warning 12.0F - - 31F 5 2% - - 97% 1 mhos 729 - None None - -
02/09/2018 02:41 Ice Warning 12.0F - - 31F 5 2% - - 97% 1 mhos 729 - None None - -
02/09/2018 02:40 Ice Warning 12.0F - - 31F 5 2% - - 97% 1 mhos 729 - None None - -
02/09/2018 02:30 Ice Warning 12.0F - - 31F 5 2% - - 97% 1 mhos 729 - None None - -
02/09/2018 02:27 Ice Warning 11.8F - - 31F 5 2% - - 97% 1 mhos 739 - None None - -
02/09/2018 02:20 Ice Warning 11.8F - - 31F 5 2% - - 97% 1 mhos 735 - None None - -
02/09/2018 02:11 Ice Warning 11.8F - - 31F 5 2% - - 97% 1 mhos 728 - None None - -
02/09/2018 02:10 Ice Warning 11.7F - - 31F 5 2% - - 97% 1 mhos 738 - None None - -
02/09/2018 02:00 Ice Warning 11.3F - - 31F 5 2% - - 97% 1 mhos 739 - None None - -
02/09/2018 01:56 Ice Warning 11.3F - - 31F 5 2% - - 97% 1 mhos 739 - None None - -
02/09/2018 01:50 Ice Warning 10.8F - - 31F 5 2% - - 97% 1 mhos 744 - None None - -
02/09/2018 01:41 Ice Warning 10.4F - - 31F 5 2% - - 97% 1 mhos 746 - None None - -
02/09/2018 01:40 Ice Warning 10.4F - - 31F 5 2% - - 97% 1 mhos 749 - None None - -
02/09/2018 01:30 Ice Warning 10.0F - - 31F 5 2% - - 97% 1 mhos 749 - None None - -
Date/Time
(MST)
Sf
Temp Chem Water Layer Surface Precipitation
Sfc Pvt Sub Frz Factor Pct Dpth DpthThk IcePct Cond Salin FI Type Intens Accum Rate
02/09/2018 01:26 Ice Warning 9.9F - - 31F 5 2% - - 97% 1 mhos 747 - None None - -
02/09/2018 01:20 Ice Warning 9.3F - - 31F 5 3% - - 97% 1 mhos 755 - None None - -
02/09/2018 01:11 Ice Warning 9.0F - - 31F 5 3% - - 97% 1 mhos 753 - None None - -
02/09/2018 01:10 Ice Warning 8.8F - - 31F 5 3% - - 97% 1 mhos 754 - None None - -
02/09/2018 01:00 Ice Warning 10.0F - - 31F 5 2% - - 97% 1 mhos 735 - None None - -
02/09/2018 00:56 Ice Warning 10.0F - - 31F 5 3% - - 97% 1 mhos 753 - None None - -
02/09/2018 00:50 Ice Warning 9.7F - - 31F 5 3% - - 97% 1 mhos 750 - None None - -
02/09/2018 00:41 Ice Warning 8.8F - - 31F 5 3% - - 97% 1 mhos 754 - None None - -
02/09/2018 00:39 Ice Warning 8.4F - - 31F 5 3% - - 97% 1 mhos 766 - None None - -
02/09/2018 00:29 Ice Warning 8.4F - - 31F 5 3% - - 97% 1 mhos 774 - None None - -
02/09/2018 00:26 Ice Warning 8.4F - - 31F 5 3% - - 97% 1 mhos 770 - None None - -
02/09/2018 00:19 Ice Warning 9.0F - - 31F 5 3% - - 97% 1 mhos 759 - None None - -
02/09/2018 00:11 Ice Warning 8.6F - - 31F 5 3% - - 97% 1 mhos 769 - None None - -
02/09/2018 00:09 Ice Warning 8.8F - - 31F 5 3% - - 97% 1 mhos 763 - None None - -
02/08/2018 23:59 Ice Warning 9.3F - - 31F 5 3% - - 97% 1 mhos 752 - None None - -
Date/Time
(MST)
Sf
Temp Chem Water Layer Surface Precipitation
Sfc Pvt Sub Frz Factor Pct Dpth DpthThk IcePct Cond Salin FI Type Intens Accum Rate
02/08/2018 23:56 Ice Warning 9.5F - - 31F 5 2% - - 97% 1 mhos 745 - None None - -
02/08/2018 23:49 Ice Warning 9.7F - - 31F 5 2% - - 97% 1 mhos 736 - None None - -
02/08/2018 23:41 Ice Warning 9.7F - - 31F 5 2% - - 97% 1 mhos 727 - None None - -
02/08/2018 23:39 Ice Warning 9.7F - - 31F 5 2% - - 97% 1 mhos 730 - None None - -
02/08/2018 23:29 Ice Warning 9.1F - - 31F 5 2% - - 97% 1 mhos 744 - None None - -
02/08/2018 23:26 Ice Warning 9.3F - - 31F 5 2% - - 97% 1 mhos 738 - None None - -
02/08/2018 23:19 Ice Warning 9.0F - - 31F 5 2% - - 97% 1 mhos 748 - None None - -
02/08/2018 23:11 Ice Warning 8.6F - - 31F 5 3% - - 97% 1 mhos 764 - None None - -
02/08/2018 23:09 Ice Warning 9.0F - - 31F 5 3% - - 97% 1 mhos 753 - None None - -
02/08/2018 22:59 Ice Warning 9.5F - - 31F 5 2% - - 97% 1 mhos 731 - None None - -
02/08/2018 22:56 Ice Warning 8.6F - - 31F 5 2% - - 97% 1 mhos 750 - None None - -
02/08/2018 22:49 Ice Warning 8.8F - - 31F 5 2% - - 97% 1 mhos 746 - None None - -
02/08/2018 22:41 Ice Warning 9.0F - - 31F 5 2% - - 97% 1 mhos 742 - None None - -
02/08/2018 22:39 Ice Warning 8.8F - - 31F 5 2% - - 97% 1 mhos 725 - None None - -
02/08/2018 22:29 Ice Warning 9.0F - - 31F 5 2% - - 97% 1 mhos 727 - None None - -
Date/Time
(MST)
Sf
Temp Chem Water Layer Surface Precipitation
Sfc Pvt Sub Frz Factor Pct Dpth DpthThk IcePct Cond Salin FI Type Intens Accum Rate
02/08/2018 22:26 Ice Warning 9.0F - - 31F 5 2% - - 97% 1 mhos 732 - None None - -
02/08/2018 22:19 Ice Warning 9.3F - - 31F 5 2% - - 97% 1 mhos 725 - None None - -
02/08/2018 22:11 Ice Warning 9.5F - - 31F 5 2% - - 97% 1 mhos 730 - None None - -
02/08/2018 22:09 Ice Warning 10.0F - - 31F 5 2% - - 97% 1 mhos 717 - None None - -
02/08/2018 21:59 Ice Warning 9.3F - - 31F 5 2% - - 97% 1 mhos 717 - None None - -
02/08/2018 21:56 Ice Warning 9.1F - - 31F 5 2% - - 97% 1 mhos 741 - None None - -
02/08/2018 21:49 Ice Warning 9.5F - - 31F 5 2% - - 97% 1 mhos 711 - None None - -
02/08/2018 21:41 Ice Warning 9.5F - - 31F 5 2% - - 97% 1 mhos 713 - None None - -
02/08/2018 21:39 Ice Warning 9.5F - - 31F 5 2% - - 97% 1 mhos 713 - None None - -
02/08/2018 21:28 Ice Warning 9.5F - - 31F 5 2% - - 97% 1 mhos 714 - None None - -
02/08/2018 21:26 Ice Warning 9.5F - - 31F 5 2% - - 97% 1 mhos 716 - None None - -
02/08/2018 21:18 Ice Warning 9.5F - - 31F 5 2% - - 97% 1 mhos 713 - None None - -
02/08/2018 21:11 Ice Warning 9.7F - - 31F 5 2% - - 97% 1 mhos 710 - None None - -
02/08/2018 21:08 Ice Warning 9.9F - - 31F 5 2% - - 97% 1 mhos 704 - None None - -
02/08/2018 20:58 Ice Warning 9.9F - - 31F 5 2% - - 97% 1 mhos 706 - None None - -
Date/Time
(MST)
Sf
Temp Chem Water Layer Surface Precipitation
Sfc Pvt Sub Frz Factor Pct Dpth DpthThk IcePct Cond Salin FI Type Intens Accum Rate
02/08/2018 20:56 Ice Warning 10.0F - - 31F 5 2% - - 97% 1 mhos 700 - None None - -
02/08/2018 20:48 Ice Warning 10.0F - - 31F 5 2% - - 97% 1 mhos 703 - None None - -
02/08/2018 20:41 Ice Warning 9.9F - - 31F 10 2% - - 97% 1 mhos 706 - Yes - - -
02/08/2018 20:38 Ice Warning 10.0F - - 31F 10 2% - - 97% 1 mhos 703 - None None - -
02/08/2018 20:28 Ice Warning 10.4F - - 31F 5 2% - - 97% 1 mhos 696 - None None - -
02/08/2018 20:26 Ice Warning 10.4F - - 31F 5 2% - - 97% 1 mhos 699 - Yes - - -
02/08/2018 20:18 Ice Warning 10.4F - - 31F 5 2% - - 97% 1 mhos 693 - Yes - - -
02/08/2018 20:11 Ice Warning 10.6F - - 31F 5 2% - - 97% 1 mhos 690 - None None - -
02/08/2018 20:08 Ice Warning 10.6F - - 31F 5 2% - - 97% 1 mhos 693 - None None - -
02/08/2018 19:58 Ice Warning 10.8F - - 31F 10 2% - - 97% 1 mhos 690 - Yes - - -
02/08/2018 19:56 Ice Warning 10.9F - - 31F 10 2% - - 97% 1 mhos 682 - Yes - - -
02/08/2018 19:48 Ice Warning 11.1F - - 31F 15 2% - - 97% 1 mhos 684 - Yes - - -
02/08/2018 19:41 Ice Warning 11.3F - - 31F 10 2% - - 97% 1 mhos 676 - Yes - - -
02/08/2018 19:38 Ice Warning 11.3F - - 31F 5 2% - - 97% 1 mhos 679 - Yes - - -
02/08/2018 19:28 Ice Warning 11.5F - - 31F 15 2% - - 97% 1 mhos 670 - Yes - - -
Date/Time
(MST)
Sf
Temp Chem Water Layer Surface Precipitation
Sfc Pvt Sub Frz Factor Pct Dpth DpthThk IcePct Cond Salin FI Type Intens Accum Rate
02/08/2018 19:26 Ice Warning 11.5F - - 31F 15 2% - - 97% 1 mhos 670 - Yes - - -
02/08/2018 19:18 Ice Warning 11.7F - - 31F 5 2% - - 97% 1 mhos 665 - None None - -
02/08/2018 19:11 Ice Warning 11.8F - - 31F 5 2% - - 97% 1 mhos 665 - None None - -
02/08/2018 19:08 Ice Warning 12.2F - - 31F 5 2% - - 97% 1 mhos 654 - None None - -
02/08/2018 18:58 Ice Warning 12.2F - - 31F 10 2% - - 97% 1 mhos 660 - None None - -
02/08/2018 18:56 Ice Warning 12.2F - - 31F 5 2% - - 97% 1 mhos 655 - Yes - - -
02/08/2018 18:48 Ice Warning 12.4F - - 31F 15 2% - - 97% 1 mhos 652 - Yes - - -
02/08/2018 18:41 Ice Warning 12.7F - - 31F 10 2% - - 97% 1 mhos 639 - Yes - - -
02/08/2018 18:38 Ice Warning 12.9F - - 31F 15 2% - - 97% 1 mhos 637 - Yes - - -
02/08/2018 18:28 Ice Warning 13.1F - - 31F 15 2% - - 97% 1 mhos 635 - Yes - - -
02/08/2018 18:26 Ice Warning 13.1F - - 31F 20 2% - - 97% 1 mhos 634 - Yes - - -
02/08/2018 18:17 Ice Warning 13.5F - - 31F 25 2% - - 97% 1 mhos 619 - Yes - - -
02/08/2018 18:11 Ice Warning 13.8F - - 31F 20 2% - - 97% 1 mhos 616 - Yes - - -
02/08/2018 18:07 Ice Warning 14.2F - - 31F 20 2% - - 97% 1 mhos 612 - Yes - - -
Change End Date:

Copyright © 1998-2015 Vaisala, Inc.
All Rights Reserved
Send comments about the data to:
SCAN Web ® is a registered trademark of Vaisala, Inc.
SCAN Web Version 6.0